sensor_id;sensor_type;location;lat;lon;timestamp;temperature;humidity
64563;SHT31;50961;48.184;11.636;2022-09-12T00:02:24;12.67;89.55
64563;SHT31;50961;48.184;11.636;2022-09-12T00:04:50;12.61;89.41
64563;SHT31;50961;48.184;11.636;2022-09-12T00:07:15;12.65;89.44
64563;SHT31;50961;48.184;11.636;2022-09-12T00:09:41;12.55;89.11
64563;SHT31;50961;48.184;11.636;2022-09-12T00:12:07;12.57;89.70
64563;SHT31;50961;48.184;11.636;2022-09-12T00:14:32;12.54;89.93
64563;SHT31;50961;48.184;11.636;2022-09-12T00:16:58;12.51;89.62
64563;SHT31;50961;48.184;11.636;2022-09-12T00:19:25;12.47;89.77
64563;SHT31;50961;48.184;11.636;2022-09-12T00:21:50;12.43;90.31
64563;SHT31;50961;48.184;11.636;2022-09-12T00:24:16;12.27;90.75
64563;SHT31;50961;48.184;11.636;2022-09-12T00:26:41;12.29;90.35
64563;SHT31;50961;48.184;11.636;2022-09-12T00:29:07;12.26;91.48
64563;SHT31;50961;48.184;11.636;2022-09-12T00:31:32;12.23;91.02
64563;SHT31;50961;48.184;11.636;2022-09-12T00:33:59;12.07;91.46
64563;SHT31;50961;48.184;11.636;2022-09-12T00:36:28;12.10;91.52
64563;SHT31;50961;48.184;11.636;2022-09-12T00:38:54;12.13;91.26
64563;SHT31;50961;48.184;11.636;2022-09-12T00:43:55;12.23;90.68
64563;SHT31;50961;48.184;11.636;2022-09-12T00:47:38;12.26;90.52
64563;SHT31;50961;48.184;11.636;2022-09-12T00:50:07;12.15;91.15
64563;SHT31;50961;48.184;11.636;2022-09-12T00:57:59;12.09;91.31
64563;SHT31;50961;48.184;11.636;2022-09-12T01:00:26;12.10;91.23
64563;SHT31;50961;48.184;11.636;2022-09-12T01:02:59;12.12;91.30
64563;SHT31;50961;48.184;11.636;2022-09-12T01:05:27;12.13;90.78
64563;SHT31;50961;48.184;11.636;2022-09-12T01:07:53;12.15;91.04
64563;SHT31;50961;48.184;11.636;2022-09-12T01:10:21;12.15;90.69
64563;SHT31;50961;48.184;11.636;2022-09-12T01:12:47;12.13;90.97
64563;SHT31;50961;48.184;11.636;2022-09-12T01:15:13;12.23;90.54
64563;SHT31;50961;48.184;11.636;2022-09-12T01:20:58;12.23;90.32
64563;SHT31;50961;48.184;11.636;2022-09-12T01:26:32;12.13;90.22
64563;SHT31;50961;48.184;11.636;2022-09-12T01:29:18;12.15;90.23
64563;SHT31;50961;48.184;11.636;2022-09-12T01:34:31;12.12;90.17
64563;SHT31;50961;48.184;11.636;2022-09-12T01:37:38;12.13;89.41
64563;SHT31;50961;48.184;11.636;2022-09-12T01:45:25;11.86;90.60
64563;SHT31;50961;48.184;11.636;2022-09-12T01:48:03;11.78;91.10
64563;SHT31;50961;48.184;11.636;2022-09-12T01:50:36;11.83;90.89
64563;SHT31;50961;48.184;11.636;2022-09-12T01:53:23;11.86;91.00
64563;SHT31;50961;48.184;11.636;2022-09-12T01:55:55;11.90;90.63
64563;SHT31;50961;48.184;11.636;2022-09-12T01:58:34;11.90;90.79
64563;SHT31;50961;48.184;11.636;2022-09-12T02:01:22;11.92;90.49
64563;SHT31;50961;48.184;11.636;2022-09-12T02:04:10;11.86;90.91
64563;SHT31;50961;48.184;11.636;2022-09-12T02:06:40;11.86;91.16
64563;SHT31;50961;48.184;11.636;2022-09-12T02:09:10;11.83;91.03
64563;SHT31;50961;48.184;11.636;2022-09-12T02:11:42;11.85;90.94
64563;SHT31;50961;48.184;11.636;2022-09-12T02:14:12;11.79;91.31
64563;SHT31;50961;48.184;11.636;2022-09-12T02:16:44;11.86;90.64
64563;SHT31;50961;48.184;11.636;2022-09-12T02:19:15;11.89;90.76
64563;SHT31;50961;48.184;11.636;2022-09-12T02:21:54;11.86;90.43
64563;SHT31;50961;48.184;11.636;2022-09-12T02:24:21;11.89;90.79
64563;SHT31;50961;48.184;11.636;2022-09-12T02:26:54;11.85;90.64
64563;SHT31;50961;48.184;11.636;2022-09-12T02:29:21;11.82;90.25
64563;SHT31;50961;48.184;11.636;2022-09-12T02:31:57;11.81;90.91
64563;SHT31;50961;48.184;11.636;2022-09-12T02:37:32;11.67;90.82
64563;SHT31;50961;48.184;11.636;2022-09-12T02:40:02;11.72;90.60
64563;SHT31;50961;48.184;11.636;2022-09-12T02:42:28;11.67;90.22
64563;SHT31;50961;48.184;11.636;2022-09-12T02:44:55;11.59;89.97
64563;SHT31;50961;48.184;11.636;2022-09-12T02:47:34;11.55;90.44
64563;SHT31;50961;48.184;11.636;2022-09-12T02:50:00;11.62;90.15
64563;SHT31;50961;48.184;11.636;2022-09-12T02:52:27;11.61;90.05
64563;SHT31;50961;48.184;11.636;2022-09-12T02:54:54;11.58;90.11
64563;SHT31;50961;48.184;11.636;2022-09-12T02:57:20;11.55;90.17
64563;SHT31;50961;48.184;11.636;2022-09-12T02:59:47;11.54;90.10
64563;SHT31;50961;48.184;11.636;2022-09-12T03:05:29;11.51;90.36
64563;SHT31;50961;48.184;11.636;2022-09-12T03:10:32;11.51;90.36
64563;SHT31;50961;48.184;11.636;2022-09-12T03:13:22;11.52;90.02
64563;SHT31;50961;48.184;11.636;2022-09-12T03:21:50;11.35;89.70
64563;SHT31;50961;48.184;11.636;2022-09-12T03:24:36;11.35;90.22
64563;SHT31;50961;48.184;11.636;2022-09-12T03:27:10;11.30;89.90
64563;SHT31;50961;48.184;11.636;2022-09-12T03:29:38;11.23;89.79
64563;SHT31;50961;48.184;11.636;2022-09-12T03:32:04;11.21;89.97
64563;SHT31;50961;48.184;11.636;2022-09-12T03:34:30;11.17;89.66
64563;SHT31;50961;48.184;11.636;2022-09-12T03:36:55;11.10;89.86
64563;SHT31;50961;48.184;11.636;2022-09-12T03:39:22;11.11;90.16
64563;SHT31;50961;48.184;11.636;2022-09-12T03:41:49;11.07;89.38
64563;SHT31;50961;48.184;11.636;2022-09-12T03:44:15;11.06;89.86
64563;SHT31;50961;48.184;11.636;2022-09-12T03:46:40;11.04;89.93
64563;SHT31;50961;48.184;11.636;2022-09-12T03:49:05;10.97;89.93
64563;SHT31;50961;48.184;11.636;2022-09-12T03:51:31;10.92;89.66
64563;SHT31;50961;48.184;11.636;2022-09-12T03:53:56;10.93;89.88
64563;SHT31;50961;48.184;11.636;2022-09-12T03:56:22;10.96;90.10
64563;SHT31;50961;48.184;11.636;2022-09-12T03:58:47;10.89;89.65
64563;SHT31;50961;48.184;11.636;2022-09-12T04:01:15;10.83;89.43
64563;SHT31;50961;48.184;11.636;2022-09-12T04:03:42;10.79;89.86
64563;SHT31;50961;48.184;11.636;2022-09-12T04:06:09;10.83;89.64
64563;SHT31;50961;48.184;11.636;2022-09-12T04:08:36;10.84;89.99
64563;SHT31;50961;48.184;11.636;2022-09-12T04:11:12;10.77;89.62
64563;SHT31;50961;48.184;11.636;2022-09-12T04:13:39;10.75;90.10
64563;SHT31;50961;48.184;11.636;2022-09-12T04:16:05;10.76;89.79
64563;SHT31;50961;48.184;11.636;2022-09-12T04:18:32;10.76;89.96
64563;SHT31;50961;48.184;11.636;2022-09-12T04:20:57;10.71;89.63
64563;SHT31;50961;48.184;11.636;2022-09-12T04:23:23;10.69;89.93
64563;SHT31;50961;48.184;11.636;2022-09-12T04:25:59;10.66;90.25
64563;SHT31;50961;48.184;11.636;2022-09-12T04:28:26;10.71;90.15
64563;SHT31;50961;48.184;11.636;2022-09-12T04:30:53;10.69;89.71
64563;SHT31;50961;48.184;11.636;2022-09-12T04:33:19;10.66;90.14
64563;SHT31;50961;48.184;11.636;2022-09-12T04:35:44;10.63;89.96
64563;SHT31;50961;48.184;11.636;2022-09-12T04:38:10;10.55;90.15
64563;SHT31;50961;48.184;11.636;2022-09-12T04:40:35;10.49;90.18
64563;SHT31;50961;48.184;11.636;2022-09-12T04:43:01;10.56;90.42
64563;SHT31;50961;48.184;11.636;2022-09-12T04:45:26;10.54;89.75
64563;SHT31;50961;48.184;11.636;2022-09-12T04:47:52;10.58;90.58
64563;SHT31;50961;48.184;11.636;2022-09-12T04:50:17;10.54;90.08
64563;SHT31;50961;48.184;11.636;2022-09-12T04:52:42;10.55;90.01
64563;SHT31;50961;48.184;11.636;2022-09-12T04:55:08;10.55;90.39
64563;SHT31;50961;48.184;11.636;2022-09-12T04:57:34;10.56;89.81
64563;SHT31;50961;48.184;11.636;2022-09-12T05:00:00;10.55;89.50
64563;SHT31;50961;48.184;11.636;2022-09-12T05:02:26;10.52;90.62
64563;SHT31;50961;48.184;11.636;2022-09-12T05:04:51;10.56;90.49
64563;SHT31;50961;48.184;11.636;2022-09-12T05:07:17;10.59;90.47
64563;SHT31;50961;48.184;11.636;2022-09-12T05:09:43;10.62;90.27
64563;SHT31;50961;48.184;11.636;2022-09-12T05:12:09;10.69;89.69
64563;SHT31;50961;48.184;11.636;2022-09-12T05:14:35;10.77;90.17
64563;SHT31;50961;48.184;11.636;2022-09-12T05:17:00;10.79;90.01
64563;SHT31;50961;48.184;11.636;2022-09-12T05:19:27;10.92;89.76
64563;SHT31;50961;48.184;11.636;2022-09-12T05:21:52;10.88;90.06
64563;SHT31;50961;48.184;11.636;2022-09-12T05:24:18;10.80;89.70
64563;SHT31;50961;48.184;11.636;2022-09-12T05:26:43;10.80;89.86
64563;SHT31;50961;48.184;11.636;2022-09-12T05:29:09;10.77;90.13
64563;SHT31;50961;48.184;11.636;2022-09-12T05:31:34;10.82;89.83
64563;SHT31;50961;48.184;11.636;2022-09-12T05:34:00;10.82;89.91
64563;SHT31;50961;48.184;11.636;2022-09-12T05:36:27;10.88;90.01
64563;SHT31;50961;48.184;11.636;2022-09-12T05:38:54;10.96;89.52
64563;SHT31;50961;48.184;11.636;2022-09-12T05:41:24;10.96;90.10
64563;SHT31;50961;48.184;11.636;2022-09-12T05:43:52;10.99;89.96
64563;SHT31;50961;48.184;11.636;2022-09-12T05:46:19;11.02;90.13
64563;SHT31;50961;48.184;11.636;2022-09-12T05:48:46;11.11;89.96
64563;SHT31;50961;48.184;11.636;2022-09-12T05:51:20;11.20;90.03
64563;SHT31;50961;48.184;11.636;2022-09-12T05:53:51;11.27;89.98
64563;SHT31;50961;48.184;11.636;2022-09-12T05:56:19;11.31;89.72
64563;SHT31;50961;48.184;11.636;2022-09-12T05:58:47;11.35;89.93
64563;SHT31;50961;48.184;11.636;2022-09-12T06:01:14;11.42;89.90
64563;SHT31;50961;48.184;11.636;2022-09-12T06:03:51;11.47;89.91
64563;SHT31;50961;48.184;11.636;2022-09-12T06:06:18;11.50;89.93
64563;SHT31;50961;48.184;11.636;2022-09-12T06:08:47;11.59;89.97
64563;SHT31;50961;48.184;11.636;2022-09-12T06:11:15;11.67;90.09
64563;SHT31;50961;48.184;11.636;2022-09-12T06:13:41;11.77;89.83
64563;SHT31;50961;48.184;11.636;2022-09-12T06:16:08;11.82;89.57
64563;SHT31;50961;48.184;11.636;2022-09-12T06:18:34;11.92;89.60
64563;SHT31;50961;48.184;11.636;2022-09-12T06:21:08;12.03;89.75
64563;SHT31;50961;48.184;11.636;2022-09-12T06:23:34;12.12;89.37
64563;SHT31;50961;48.184;11.636;2022-09-12T06:26:00;12.23;89.46
64563;SHT31;50961;48.184;11.636;2022-09-12T06:28:27;12.33;89.13
64563;SHT31;50961;48.184;11.636;2022-09-12T06:30:53;12.48;88.87
64563;SHT31;50961;48.184;11.636;2022-09-12T06:33:18;12.61;88.70
64563;SHT31;50961;48.184;11.636;2022-09-12T06:35:44;12.64;88.64
64563;SHT31;50961;48.184;11.636;2022-09-12T06:38:09;12.78;88.43
64563;SHT31;50961;48.184;11.636;2022-09-12T06:40:41;12.89;88.11
64563;SHT31;50961;48.184;11.636;2022-09-12T06:43:10;13.05;87.78
64563;SHT31;50961;48.184;11.636;2022-09-12T06:45:36;13.20;87.16
64563;SHT31;50961;48.184;11.636;2022-09-12T06:48:01;13.35;86.69
64563;SHT31;50961;48.184;11.636;2022-09-12T06:50:27;13.47;86.05
64563;SHT31;50961;48.184;11.636;2022-09-12T06:52:52;13.64;85.45
64563;SHT31;50961;48.184;11.636;2022-09-12T06:55:18;13.74;84.67
64563;SHT31;50961;48.184;11.636;2022-09-12T06:57:43;13.89;84.82
64563;SHT31;50961;48.184;11.636;2022-09-12T07:00:09;14.09;84.63
64563;SHT31;50961;48.184;11.636;2022-09-12T07:02:34;14.25;84.11
64563;SHT31;50961;48.184;11.636;2022-09-12T07:05:00;14.42;83.50
64563;SHT31;50961;48.184;11.636;2022-09-12T07:07:25;14.53;82.87
64563;SHT31;50961;48.184;11.636;2022-09-12T07:09:50;14.72;82.63
64563;SHT31;50961;48.184;11.636;2022-09-12T07:12:16;14.91;82.13
64563;SHT31;50961;48.184;11.636;2022-09-12T07:14:41;15.18;81.22
64563;SHT31;50961;48.184;11.636;2022-09-12T07:17:07;15.38;80.72
64563;SHT31;50961;48.184;11.636;2022-09-12T07:19:33;15.60;80.23
64563;SHT31;50961;48.184;11.636;2022-09-12T07:21:58;15.83;79.59
64563;SHT31;50961;48.184;11.636;2022-09-12T07:24:23;16.04;79.32
64563;SHT31;50961;48.184;11.636;2022-09-12T07:26:49;16.25;78.74
64563;SHT31;50961;48.184;11.636;2022-09-12T07:29:15;16.40;78.87
64563;SHT31;50961;48.184;11.636;2022-09-12T07:31:41;16.58;78.54
64563;SHT31;50961;48.184;11.636;2022-09-12T07:34:07;16.82;77.56
64563;SHT31;50961;48.184;11.636;2022-09-12T07:36:33;16.99;76.82
64563;SHT31;50961;48.184;11.636;2022-09-12T07:38:58;17.23;76.23
64563;SHT31;50961;48.184;11.636;2022-09-12T07:41:28;17.40;75.58
64563;SHT31;50961;48.184;11.636;2022-09-12T07:43:56;17.48;74.86
64563;SHT31;50961;48.184;11.636;2022-09-12T07:46:23;17.72;74.96
64563;SHT31;50961;48.184;11.636;2022-09-12T07:48:53;17.74;74.96
64563;SHT31;50961;48.184;11.636;2022-09-12T07:51:19;17.83;74.15
64563;SHT31;50961;48.184;11.636;2022-09-12T07:53:45;17.95;72.32
64563;SHT31;50961;48.184;11.636;2022-09-12T07:56:11;18.02;70.92
64563;SHT31;50961;48.184;11.636;2022-09-12T07:58:38;17.90;72.14
64563;SHT31;50961;48.184;11.636;2022-09-12T08:01:07;18.17;73.04
64563;SHT31;50961;48.184;11.636;2022-09-12T08:03:33;18.36;73.11
64563;SHT31;50961;48.184;11.636;2022-09-12T08:08:35;18.71;70.91
64563;SHT31;50961;48.184;11.636;2022-09-12T08:11:03;18.94;70.54
64563;SHT31;50961;48.184;11.636;2022-09-12T08:13:31;19.39;69.72
64563;SHT31;50961;48.184;11.636;2022-09-12T08:15:58;19.50;69.94
64563;SHT31;50961;48.184;11.636;2022-09-12T08:18:27;19.66;69.01
64563;SHT31;50961;48.184;11.636;2022-09-12T08:21:00;19.87;67.27
64563;SHT31;50961;48.184;11.636;2022-09-12T08:23:27;20.04;67.69
64563;SHT31;50961;48.184;11.636;2022-09-12T08:26:00;20.33;67.43
64563;SHT31;50961;48.184;11.636;2022-09-12T08:28:28;20.43;66.84
64563;SHT31;50961;48.184;11.636;2022-09-12T08:30:53;20.69;66.38
64563;SHT31;50961;48.184;11.636;2022-09-12T08:33:24;21.02;66.10
64563;SHT31;50961;48.184;11.636;2022-09-12T08:35:51;21.31;64.73
64563;SHT31;50961;48.184;11.636;2022-09-12T08:38:16;21.34;64.25
64563;SHT31;50961;48.184;11.636;2022-09-12T08:40:59;21.77;62.65
64563;SHT31;50961;48.184;11.636;2022-09-12T08:46:06;21.85;63.42
64563;SHT31;50961;48.184;11.636;2022-09-12T08:48:32;22.24;61.92
64563;SHT31;50961;48.184;11.636;2022-09-12T08:50:59;22.45;60.95
64563;SHT31;50961;48.184;11.636;2022-09-12T08:53:27;22.44;59.35
64563;SHT31;50961;48.184;11.636;2022-09-12T08:55:58;22.52;58.55
64563;SHT31;50961;48.184;11.636;2022-09-12T08:58:26;22.48;59.41
64563;SHT31;50961;48.184;11.636;2022-09-12T09:01:06;22.85;58.54
64563;SHT31;50961;48.184;11.636;2022-09-12T09:06:34;23.14;57.77
64563;SHT31;50961;48.184;11.636;2022-09-12T09:12:00;23.64;56.71
64563;SHT31;50961;48.184;11.636;2022-09-12T09:17:28;23.02;57.41
64563;SHT31;50961;48.184;11.636;2022-09-12T09:22:51;23.72;57.18
64563;SHT31;50961;48.184;11.636;2022-09-12T09:25:22;24.20;56.35
64563;SHT31;50961;48.184;11.636;2022-09-12T09:27:57;24.15;55.28
64563;SHT31;50961;48.184;11.636;2022-09-12T09:30:25;23.95;52.86
64563;SHT31;50961;48.184;11.636;2022-09-12T09:32:54;23.62;54.83
64563;SHT31;50961;48.184;11.636;2022-09-12T09:35:43;24.01;54.88
64563;SHT31;50961;48.184;11.636;2022-09-12T09:43:49;25.01;51.93
64563;SHT31;50961;48.184;11.636;2022-09-12T09:46:15;25.08;50.29
64563;SHT31;50961;48.184;11.636;2022-09-12T09:48:48;25.04;52.59
64563;SHT31;50961;48.184;11.636;2022-09-12T09:51:18;25.45;52.04
64563;SHT31;50961;48.184;11.636;2022-09-12T09:56:29;25.91;51.36
64563;SHT31;50961;48.184;11.636;2022-09-12T10:01:53;25.66;50.99
64563;SHT31;50961;48.184;11.636;2022-09-12T10:04:24;25.63;51.86
64563;SHT31;50961;48.184;11.636;2022-09-12T10:06:56;25.65;50.70
64563;SHT31;50961;48.184;11.636;2022-09-12T10:09:24;25.71;49.06
64563;SHT31;50961;48.184;11.636;2022-09-12T10:11:52;25.77;51.80
64563;SHT31;50961;48.184;11.636;2022-09-12T10:14:28;26.02;51.54
64563;SHT31;50961;48.184;11.636;2022-09-12T10:16:55;26.56;49.39
64563;SHT31;50961;48.184;11.636;2022-09-12T10:19:34;26.82;49.97
64563;SHT31;50961;48.184;11.636;2022-09-12T10:22:01;26.17;47.20
64563;SHT31;50961;48.184;11.636;2022-09-12T10:27:06;25.78;48.98
64563;SHT31;50961;48.184;11.636;2022-09-12T10:29:37;26.46;49.35
64563;SHT31;50961;48.184;11.636;2022-09-12T10:32:06;26.78;49.84
64563;SHT31;50961;48.184;11.636;2022-09-12T10:34:45;26.72;49.11
64563;SHT31;50961;48.184;11.636;2022-09-12T10:37:35;26.75;47.81
64563;SHT31;50961;48.184;11.636;2022-09-12T10:40:03;27.03;48.30
64563;SHT31;50961;48.184;11.636;2022-09-12T10:45:21;27.52;47.18
64563;SHT31;50961;48.184;11.636;2022-09-12T10:47:47;27.51;48.22
64563;SHT31;50961;48.184;11.636;2022-09-12T10:50:28;27.54;47.67
64563;SHT31;50961;48.184;11.636;2022-09-12T10:53:12;27.73;47.48
64563;SHT31;50961;48.184;11.636;2022-09-12T10:55:41;27.34;46.05
64563;SHT31;50961;48.184;11.636;2022-09-12T10:58:39;27.31;47.64
64563;SHT31;50961;48.184;11.636;2022-09-12T11:09:26;27.54;45.33
64563;SHT31;50961;48.184;11.636;2022-09-12T11:12:06;27.41;44.38
64563;SHT31;50961;48.184;11.636;2022-09-12T11:14:46;27.56;45.70
64563;SHT31;50961;48.184;11.636;2022-09-12T11:20:11;27.79;45.77
64563;SHT31;50961;48.184;11.636;2022-09-12T11:25:51;28.23;43.37
64563;SHT31;50961;48.184;11.636;2022-09-12T11:31:23;28.82;44.53
64563;SHT31;50961;48.184;11.636;2022-09-12T11:33:54;28.78;44.99
64563;SHT31;50961;48.184;11.636;2022-09-12T11:36:32;28.89;44.98
64563;SHT31;50961;48.184;11.636;2022-09-12T11:39:10;28.87;44.73
64563;SHT31;50961;48.184;11.636;2022-09-12T11:41:43;29.43;43.84
64563;SHT31;50961;48.184;11.636;2022-09-12T11:44:21;29.40;43.26
64563;SHT31;50961;48.184;11.636;2022-09-12T11:46:48;29.40;43.66
64563;SHT31;50961;48.184;11.636;2022-09-12T11:49:36;29.17;42.78
64563;SHT31;50961;48.184;11.636;2022-09-12T11:52:18;29.31;42.90
64563;SHT31;50961;48.184;11.636;2022-09-12T11:57:27;29.00;44.38
64563;SHT31;50961;48.184;11.636;2022-09-12T12:00:06;29.25;43.90
64563;SHT31;50961;48.184;11.636;2022-09-12T12:06:03;29.37;44.28
64563;SHT31;50961;48.184;11.636;2022-09-12T12:08:32;29.53;42.94
64563;SHT31;50961;48.184;11.636;2022-09-12T12:11:04;29.60;42.23
64563;SHT31;50961;48.184;11.636;2022-09-12T12:16:01;29.38;42.87
64563;SHT31;50961;48.184;11.636;2022-09-12T12:18:29;29.19;41.44
64563;SHT31;50961;48.184;11.636;2022-09-12T12:20:56;29.33;42.07
64563;SHT31;50961;48.184;11.636;2022-09-12T12:23:40;29.36;42.11
64563;SHT31;50961;48.184;11.636;2022-09-12T12:29:03;29.16;41.80
64563;SHT31;50961;48.184;11.636;2022-09-12T12:31:29;29.25;41.52
64563;SHT31;50961;48.184;11.636;2022-09-12T12:34:00;29.06;41.82
64563;SHT31;50961;48.184;11.636;2022-09-12T12:36:34;29.36;42.25
64563;SHT31;50961;48.184;11.636;2022-09-12T12:47:53;29.71;40.29
64563;SHT31;50961;48.184;11.636;2022-09-12T12:50:20;29.71;40.08
64563;SHT31;50961;48.184;11.636;2022-09-12T12:52:51;29.71;41.18
64563;SHT31;50961;48.184;11.636;2022-09-12T13:03:29;29.60;37.96
64563;SHT31;50961;48.184;11.636;2022-09-12T13:06:01;29.64;39.54
64563;SHT31;50961;48.184;11.636;2022-09-12T13:08:30;29.74;39.11
64563;SHT31;50961;48.184;11.636;2022-09-12T13:14:02;29.47;38.65
64563;SHT31;50961;48.184;11.636;2022-09-12T13:16:51;29.30;37.75
64563;SHT31;50961;48.184;11.636;2022-09-12T13:19:25;29.42;39.10
64563;SHT31;50961;48.184;11.636;2022-09-12T13:21:55;29.51;39.46
64563;SHT31;50961;48.184;11.636;2022-09-12T13:24:22;29.06;37.35
64563;SHT31;50961;48.184;11.636;2022-09-12T13:26:48;29.22;38.65
64563;SHT31;50961;48.184;11.636;2022-09-12T13:29:16;29.12;38.43
64563;SHT31;50961;48.184;11.636;2022-09-12T13:31:43;29.36;39.96
64563;SHT31;50961;48.184;11.636;2022-09-12T13:34:15;29.27;38.30
64563;SHT31;50961;48.184;11.636;2022-09-12T13:37:06;29.60;39.09
64563;SHT31;50961;48.184;11.636;2022-09-12T13:45:17;29.92;37.80
64563;SHT31;50961;48.184;11.636;2022-09-12T13:47:46;30.00;39.47
64563;SHT31;50961;48.184;11.636;2022-09-12T13:50:16;29.78;39.10
64563;SHT31;50961;48.184;11.636;2022-09-12T13:52:49;29.74;38.43
64563;SHT31;50961;48.184;11.636;2022-09-12T13:55:37;29.86;38.61
64563;SHT31;50961;48.184;11.636;2022-09-12T13:58:50;30.12;37.89
64563;SHT31;50961;48.184;11.636;2022-09-12T14:01:39;30.30;38.00
64563;SHT31;50961;48.184;11.636;2022-09-12T14:07:01;30.61;37.66
64563;SHT31;50961;48.184;11.636;2022-09-12T14:09:40;30.73;36.07
64563;SHT31;50961;48.184;11.636;2022-09-12T14:12:25;30.80;36.31
64563;SHT31;50961;48.184;11.636;2022-09-12T14:14:51;30.16;34.51
64563;SHT31;50961;48.184;11.636;2022-09-12T14:17:35;30.29;35.83
64563;SHT31;50961;48.184;11.636;2022-09-12T14:20:07;30.09;36.42
64563;SHT31;50961;48.184;11.636;2022-09-12T14:22:33;30.02;36.41
64563;SHT31;50961;48.184;11.636;2022-09-12T14:25:00;30.13;37.85
64563;SHT31;50961;48.184;11.636;2022-09-12T14:27:28;30.47;37.36
64563;SHT31;50961;48.184;11.636;2022-09-12T14:30:32;30.57;37.31
64563;SHT31;50961;48.184;11.636;2022-09-12T14:36:06;31.02;36.22
64563;SHT31;50961;48.184;11.636;2022-09-12T14:38:43;30.90;35.89
64563;SHT31;50961;48.184;11.636;2022-09-12T14:41:11;30.60;36.59
64563;SHT31;50961;48.184;11.636;2022-09-12T14:43:44;30.74;36.48
64563;SHT31;50961;48.184;11.636;2022-09-12T14:46:21;29.98;37.16
64563;SHT31;50961;48.184;11.636;2022-09-12T14:51:39;29.89;36.63
64563;SHT31;50961;48.184;11.636;2022-09-12T14:56:58;29.91;37.70
64563;SHT31;50961;48.184;11.636;2022-09-12T14:59:34;29.65;38.30
64563;SHT31;50961;48.184;11.636;2022-09-12T15:04:45;29.25;38.09
64563;SHT31;50961;48.184;11.636;2022-09-12T15:07:23;28.83;38.76
64563;SHT31;50961;48.184;11.636;2022-09-12T15:09:51;28.98;39.59
64563;SHT31;50961;48.184;11.636;2022-09-12T15:12:17;28.95;39.59
64563;SHT31;50961;48.184;11.636;2022-09-12T15:14:42;28.83;41.52
64563;SHT31;50961;48.184;11.636;2022-09-12T15:17:08;28.81;40.20
64563;SHT31;50961;48.184;11.636;2022-09-12T15:19:33;28.85;39.60
64563;SHT31;50961;48.184;11.636;2022-09-12T15:21:58;28.91;38.88
64563;SHT31;50961;48.184;11.636;2022-09-12T15:24:24;29.08;38.22
64563;SHT31;50961;48.184;11.636;2022-09-12T15:26:49;29.08;39.34
64563;SHT31;50961;48.184;11.636;2022-09-12T15:29:15;29.22;38.15
64563;SHT31;50961;48.184;11.636;2022-09-12T15:31:40;29.19;38.84
64563;SHT31;50961;48.184;11.636;2022-09-12T15:34:07;28.94;38.53
64563;SHT31;50961;48.184;11.636;2022-09-12T15:36:32;29.13;39.14
64563;SHT31;50961;48.184;11.636;2022-09-12T15:38:58;28.87;38.86
64563;SHT31;50961;48.184;11.636;2022-09-12T15:41:33;29.15;38.59
64563;SHT31;50961;48.184;11.636;2022-09-12T15:44:06;29.12;38.48
64563;SHT31;50961;48.184;11.636;2022-09-12T15:46:34;29.22;38.42
64563;SHT31;50961;48.184;11.636;2022-09-12T15:49:00;28.99;39.40
64563;SHT31;50961;48.184;11.636;2022-09-12T15:51:25;29.13;39.39
64563;SHT31;50961;48.184;11.636;2022-09-12T15:53:50;28.83;40.43
64563;SHT31;50961;48.184;11.636;2022-09-12T15:56:18;28.87;41.05
64563;SHT31;50961;48.184;11.636;2022-09-12T15:58:45;28.89;40.39
64563;SHT31;50961;48.184;11.636;2022-09-12T16:01:12;28.75;40.31
64563;SHT31;50961;48.184;11.636;2022-09-12T16:03:38;28.91;40.87
64563;SHT31;50961;48.184;11.636;2022-09-12T16:06:03;28.88;40.43
64563;SHT31;50961;48.184;11.636;2022-09-12T16:08:30;28.57;41.52
64563;SHT31;50961;48.184;11.636;2022-09-12T16:11:17;28.75;41.30
64563;SHT31;50961;48.184;11.636;2022-09-12T16:13:43;28.54;42.74
64563;SHT31;50961;48.184;11.636;2022-09-12T16:16:08;28.64;42.58
64563;SHT31;50961;48.184;11.636;2022-09-12T16:18:34;28.54;43.53
64563;SHT31;50961;48.184;11.636;2022-09-12T16:21:00;28.60;43.10
64563;SHT31;50961;48.184;11.636;2022-09-12T16:23:25;28.39;43.35
64563;SHT31;50961;48.184;11.636;2022-09-12T16:26:01;28.31;43.44
64563;SHT31;50961;48.184;11.636;2022-09-12T16:28:26;27.95;43.80
64563;SHT31;50961;48.184;11.636;2022-09-12T16:30:59;27.93;44.19
64563;SHT31;50961;48.184;11.636;2022-09-12T16:33:25;27.72;44.17
64563;SHT31;50961;48.184;11.636;2022-09-12T16:35:51;27.66;44.51
64563;SHT31;50961;48.184;11.636;2022-09-12T16:38:20;27.39;44.79
64563;SHT31;50961;48.184;11.636;2022-09-12T16:40:46;27.21;45.23
64563;SHT31;50961;48.184;11.636;2022-09-12T16:43:11;27.10;45.72
64563;SHT31;50961;48.184;11.636;2022-09-12T16:45:37;26.97;46.01
64563;SHT31;50961;48.184;11.636;2022-09-12T16:48:03;26.60;46.49
64563;SHT31;50961;48.184;11.636;2022-09-12T16:50:28;26.45;47.09
64563;SHT31;50961;48.184;11.636;2022-09-12T16:52:54;26.32;47.74
64563;SHT31;50961;48.184;11.636;2022-09-12T16:55:19;26.20;47.64
64563;SHT31;50961;48.184;11.636;2022-09-12T16:57:46;25.97;48.41
64563;SHT31;50961;48.184;11.636;2022-09-12T17:00:13;25.67;49.21
64563;SHT31;50961;48.184;11.636;2022-09-12T17:02:39;25.43;50.14
64563;SHT31;50961;48.184;11.636;2022-09-12T17:05:05;25.16;50.81
64563;SHT31;50961;48.184;11.636;2022-09-12T17:07:30;24.96;51.43
64563;SHT31;50961;48.184;11.636;2022-09-12T17:09:55;24.75;52.17
64563;SHT31;50961;48.184;11.636;2022-09-12T17:12:21;24.51;52.69
64563;SHT31;50961;48.184;11.636;2022-09-12T17:14:48;24.30;53.27
64563;SHT31;50961;48.184;11.636;2022-09-12T17:17:13;24.12;53.96
64563;SHT31;50961;48.184;11.636;2022-09-12T17:19:39;23.81;54.93
64563;SHT31;50961;48.184;11.636;2022-09-12T17:22:04;23.57;56.07
64563;SHT31;50961;48.184;11.636;2022-09-12T17:24:30;23.37;56.62
64563;SHT31;50961;48.184;11.636;2022-09-12T17:26:55;23.20;56.65
64563;SHT31;50961;48.184;11.636;2022-09-12T17:29:21;22.98;57.29
64563;SHT31;50961;48.184;11.636;2022-09-12T17:31:47;22.89;57.54
64563;SHT31;50961;48.184;11.636;2022-09-12T17:34:13;22.63;58.60
64563;SHT31;50961;48.184;11.636;2022-09-12T17:36:39;22.48;59.18
64563;SHT31;50961;48.184;11.636;2022-09-12T17:39:08;22.35;59.78
64563;SHT31;50961;48.184;11.636;2022-09-12T17:41:33;22.24;59.86
64563;SHT31;50961;48.184;11.636;2022-09-12T17:44:00;22.11;60.63
64563;SHT31;50961;48.184;11.636;2022-09-12T17:46:33;21.90;60.83
64563;SHT31;50961;48.184;11.636;2022-09-12T17:48:59;21.76;61.37
64563;SHT31;50961;48.184;11.636;2022-09-12T17:51:26;21.60;61.28